sensor_id;sensor_type;location;lat;lon;timestamp;pressure;altitude;pressure_sealevel;temperature
30001;BMP280;16845;48.670;9.000;2023-05-10T00:01:18;94955.91;;;13.05
30001;BMP280;16845;48.670;9.000;2023-05-10T00:03:44;94961.91;;;13.19
30001;BMP280;16845;48.670;9.000;2023-05-10T00:06:11;94960.41;;;13.15
30001;BMP280;16845;48.670;9.000;2023-05-10T00:08:38;94957.88;;;12.98
30001;BMP280;16845;48.670;9.000;2023-05-10T00:11:04;94955.00;;;13.06
30001;BMP280;16845;48.670;9.000;2023-05-10T00:13:31;94954.84;;;13.09
30001;BMP280;16845;48.670;9.000;2023-05-10T00:15:58;94960.47;;;12.97
30001;BMP280;16845;48.670;9.000;2023-05-10T00:18:25;94960.19;;;13.03
30001;BMP280;16845;48.670;9.000;2023-05-10T00:20:52;94960.03;;;13.06
30001;BMP280;16845;48.670;9.000;2023-05-10T00:23:18;94962.78;;;13.01
30001;BMP280;16845;48.670;9.000;2023-05-10T00:25:45;94965.66;;;12.94
30001;BMP280;16845;48.670;9.000;2023-05-10T00:28:11;94960.66;;;12.92
30001;BMP280;16845;48.670;9.000;2023-05-10T00:30:38;94960.41;;;12.98
30001;BMP280;16845;48.670;9.000;2023-05-10T00:33:05;94959.53;;;12.99
30001;BMP280;16845;48.670;9.000;2023-05-10T00:35:32;94962.78;;;13.01
30001;BMP280;16845;48.670;9.000;2023-05-10T00:37:58;94965.44;;;12.98
30001;BMP280;16845;48.670;9.000;2023-05-10T00:40:25;94968.69;;;13.00
30001;BMP280;16845;48.670;9.000;2023-05-10T00:42:52;94963.72;;;12.99
30001;BMP280;16845;48.670;9.000;2023-05-10T00:45:18;94976.13;;;12.85
30001;BMP280;16845;48.670;9.000;2023-05-10T00:47:45;94976.31;;;12.80
30001;BMP280;16845;48.670;9.000;2023-05-10T00:50:13;94970.19;;;12.86
30001;BMP280;16845;48.670;9.000;2023-05-10T00:52:40;94975.31;;;12.84
30001;BMP280;16845;48.670;9.000;2023-05-10T00:55:09;94977.84;;;12.84
30001;BMP280;16845;48.670;9.000;2023-05-10T00:57:36;94979.72;;;12.79
30001;BMP280;16845;48.670;9.000;2023-05-10T01:00:03;94973.31;;;12.91
30001;BMP280;16845;48.670;9.000;2023-05-10T01:02:30;94984.16;;;12.74
30001;BMP280;16845;48.670;9.000;2023-05-10T01:04:56;94986.72;;;12.91
30001;BMP280;16845;48.670;9.000;2023-05-10T01:07:24;94976.84;;;12.87
30001;BMP280;16845;48.670;9.000;2023-05-10T01:09:51;94983.34;;;12.74
30001;BMP280;16845;48.670;9.000;2023-05-10T01:12:17;94977.22;;;12.61
30001;BMP280;16845;48.670;9.000;2023-05-10T01:14:44;94986.41;;;12.62
30001;BMP280;16845;48.670;9.000;2023-05-10T01:17:12;94982.41;;;12.76
30001;BMP280;16845;48.670;9.000;2023-05-10T01:19:38;94990.03;;;12.56
30001;BMP280;16845;48.670;9.000;2023-05-10T01:22:16;94991.25;;;12.48
30001;BMP280;16845;48.670;9.000;2023-05-10T01:25:08;94992.19;;;12.45
30001;BMP280;16845;48.670;9.000;2023-05-10T01:27:56;94994.81;;;12.44
30001;BMP280;16845;48.670;9.000;2023-05-10T01:30:58;94997.16;;;12.28
30001;BMP280;16845;48.670;9.000;2023-05-10T01:36:05;94994.75;;;12.25
30001;BMP280;16845;48.670;9.000;2023-05-10T01:38:38;95003.09;;;12.27
30001;BMP280;16845;48.670;9.000;2023-05-10T01:41:14;95005.59;;;12.27
30001;BMP280;16845;48.670;9.000;2023-05-10T01:43:49;95005.25;;;12.35
30001;BMP280;16845;48.670;9.000;2023-05-10T01:46:26;95011.03;;;12.37
30001;BMP280;16845;48.670;9.000;2023-05-10T01:48:55;95015.03;;;12.41
30001;BMP280;16845;48.670;9.000;2023-05-10T01:51:29;95008.38;;;12.21
30001;BMP280;16845;48.670;9.000;2023-05-10T01:54:00;95009.09;;;12.23
30001;BMP280;16845;48.670;9.000;2023-05-10T01:56:30;95007.13;;;12.30
30001;BMP280;16845;48.670;9.000;2023-05-10T01:58:58;95005.41;;;12.32
30001;BMP280;16845;48.670;9.000;2023-05-10T02:01:26;95018.44;;;12.40
30001;BMP280;16845;48.670;9.000;2023-05-10T02:03:54;95017.91;;;12.33
30001;BMP280;16845;48.670;9.000;2023-05-10T02:06:22;95018.44;;;12.21
30001;BMP280;16845;48.670;9.000;2023-05-10T02:08:52;95032.09;;;12.34
30001;BMP280;16845;48.670;9.000;2023-05-10T02:11:19;95030.13;;;12.22
30001;BMP280;16845;48.670;9.000;2023-05-10T02:13:46;95020.25;;;12.18
30001;BMP280;16845;48.670;9.000;2023-05-10T02:16:14;95018.56;;;12.18
30001;BMP280;16845;48.670;9.000;2023-05-10T02:18:42;95024.94;;;12.25
30001;BMP280;16845;48.670;9.000;2023-05-10T02:21:10;95020.34;;;12.16
30001;BMP280;16845;48.670;9.000;2023-05-10T02:23:37;95023.72;;;12.15
30001;BMP280;16845;48.670;9.000;2023-05-10T02:26:06;95024.41;;;12.19
30001;BMP280;16845;48.670;9.000;2023-05-10T02:28:33;95032.63;;;12.22
30001;BMP280;16845;48.670;9.000;2023-05-10T02:31:02;95039.00;;;12.11
30001;BMP280;16845;48.670;9.000;2023-05-10T02:33:30;95044.22;;;12.06
30001;BMP280;16845;48.670;9.000;2023-05-10T02:35:57;95044.75;;;11.94
30001;BMP280;16845;48.670;9.000;2023-05-10T02:38:25;95046.84;;;12.03
30001;BMP280;16845;48.670;9.000;2023-05-10T02:40:52;95048.94;;;11.94
30001;BMP280;16845;48.670;9.000;2023-05-10T02:43:20;95044.63;;;11.97
30001;BMP280;16845;48.670;9.000;2023-05-10T02:45:49;95044.84;;;12.11
30001;BMP280;16845;48.670;9.000;2023-05-10T02:48:16;95041.59;;;12.09
30001;BMP280;16845;48.670;9.000;2023-05-10T02:50:44;95037.44;;;12.08
30001;BMP280;16845;48.670;9.000;2023-05-10T02:53:15;95043.16;;;12.12
30001;BMP280;16845;48.670;9.000;2023-05-10T02:55:44;95042.72;;;12.02
30001;BMP280;16845;48.670;9.000;2023-05-10T02:58:14;95034.41;;;12.00
30001;BMP280;16845;48.670;9.000;2023-05-10T03:00:42;95038.25;;;12.09
30001;BMP280;16845;48.670;9.000;2023-05-10T03:03:09;95044.66;;;12.16
30001;BMP280;16845;48.670;9.000;2023-05-10T03:05:35;95042.97;;;12.16
30001;BMP280;16845;48.670;9.000;2023-05-10T03:08:02;95048.94;;;12.14
30001;BMP280;16845;48.670;9.000;2023-05-10T03:10:30;95050.75;;;12.10
30001;BMP280;16845;48.670;9.000;2023-05-10T03:13:12;95052.53;;;12.08
30001;BMP280;16845;48.670;9.000;2023-05-10T03:15:48;95049.13;;;12.09
30001;BMP280;16845;48.670;9.000;2023-05-10T03:18:22;95050.38;;;12.19
30001;BMP280;16845;48.670;9.000;2023-05-10T03:20:50;95042.31;;;12.11
30001;BMP280;16845;48.670;9.000;2023-05-10T03:23:22;95046.38;;;12.15
30001;BMP280;16845;48.670;9.000;2023-05-10T03:25:52;95044.75;;;12.33
30001;BMP280;16845;48.670;9.000;2023-05-10T03:28:18;95046.66;;;12.08
30001;BMP280;16845;48.670;9.000;2023-05-10T03:30:47;95045.16;;;12.04
30001;BMP280;16845;48.670;9.000;2023-05-10T03:33:13;95055.09;;;12.07
30001;BMP280;16845;48.670;9.000;2023-05-10T03:35:40;95056.47;;;12.14
30001;BMP280;16845;48.670;9.000;2023-05-10T03:38:06;95058.56;;;12.04
30001;BMP280;16845;48.670;9.000;2023-05-10T03:40:33;95067.06;;;12.02
30001;BMP280;16845;48.670;9.000;2023-05-10T03:42:59;95069.25;;;12.09
30001;BMP280;16845;48.670;9.000;2023-05-10T03:45:26;95068.25;;;11.93
30001;BMP280;16845;48.670;9.000;2023-05-10T03:47:54;95079.28;;;11.89
30001;BMP280;16845;48.670;9.000;2023-05-10T03:50:21;95085.66;;;11.78
30001;BMP280;16845;48.670;9.000;2023-05-10T03:52:47;95082.66;;;11.68
30001;BMP280;16845;48.670;9.000;2023-05-10T03:55:14;95082.31;;;11.77
30001;BMP280;16845;48.670;9.000;2023-05-10T03:57:40;95081.63;;;11.53
30001;BMP280;16845;48.670;9.000;2023-05-10T04:00:08;95073.97;;;11.56
30001;BMP280;16845;48.670;9.000;2023-05-10T04:02:34;95076.09;;;11.66
30001;BMP280;16845;48.670;9.000;2023-05-10T04:05:03;95079.53;;;11.64
30001;BMP280;16845;48.670;9.000;2023-05-10T04:07:29;95076.00;;;11.68
30001;BMP280;16845;48.670;9.000;2023-05-10T04:09:56;95072.63;;;11.68
30001;BMP280;16845;48.670;9.000;2023-05-10T04:12:22;95079.03;;;11.75
30001;BMP280;16845;48.670;9.000;2023-05-10T04:14:49;95082.31;;;11.77
30001;BMP280;16845;48.670;9.000;2023-05-10T04:17:15;95081.00;;;11.69
30001;BMP280;16845;48.670;9.000;2023-05-10T04:19:42;95079.53;;;11.64
30001;BMP280;16845;48.670;9.000;2023-05-10T04:22:09;95080.94;;;11.71
30001;BMP280;16845;48.670;9.000;2023-05-10T04:24:36;95078.19;;;11.55
30001;BMP280;16845;48.670;9.000;2023-05-10T04:27:02;95079.34;;;11.68
30001;BMP280;16845;48.670;9.000;2023-05-10T04:29:29;95086.59;;;11.75
30001;BMP280;16845;48.670;9.000;2023-05-10T04:31:55;95077.66;;;11.68
30001;BMP280;16845;48.670;9.000;2023-05-10T04:34:22;95085.84;;;11.73
30001;BMP280;16845;48.670;9.000;2023-05-10T04:36:48;95083.72;;;11.84
30001;BMP280;16845;48.670;9.000;2023-05-10T04:39:17;95080.44;;;11.82
30001;BMP280;16845;48.670;9.000;2023-05-10T04:41:43;95081.19;;;11.84
30001;BMP280;16845;48.670;9.000;2023-05-10T04:44:10;95081.00;;;11.89
30001;BMP280;16845;48.670;9.000;2023-05-10T04:46:36;95079.94;;;11.94
30001;BMP280;16845;48.670;9.000;2023-05-10T04:49:03;95086.75;;;11.92
30001;BMP280;16845;48.670;9.000;2023-05-10T04:51:29;95082.66;;;11.90
30001;BMP280;16845;48.670;9.000;2023-05-10T04:53:55;95082.38;;;12.16
30001;BMP280;16845;48.670;9.000;2023-05-10T04:56:33;95087.34;;;11.97
30001;BMP280;16845;48.670;9.000;2023-05-10T04:59:00;95092.75;;;12.08
30001;BMP280;16845;48.670;9.000;2023-05-10T05:01:26;95092.19;;;12.02
30001;BMP280;16845;48.670;9.000;2023-05-10T05:03:53;95094.00;;;11.98
30001;BMP280;16845;48.670;9.000;2023-05-10T05:06:20;95097.53;;;11.94
30001;BMP280;16845;48.670;9.000;2023-05-10T05:08:46;95095.50;;;12.02
30001;BMP280;16845;48.670;9.000;2023-05-10T05:11:13;95100.16;;;12.11
30001;BMP280;16845;48.670;9.000;2023-05-10T05:13:40;95091.03;;;12.29
30001;BMP280;16845;48.670;9.000;2023-05-10T05:16:07;95098.03;;;12.22
30001;BMP280;16845;48.670;9.000;2023-05-10T05:18:33;95105.56;;;12.22
30001;BMP280;16845;48.670;9.000;2023-05-10T05:21:00;95103.75;;;12.26
30001;BMP280;16845;48.670;9.000;2023-05-10T05:23:26;95100.31;;;12.28
30001;BMP280;16845;48.670;9.000;2023-05-10T05:25:53;95108.16;;;12.21
30001;BMP280;16845;48.670;9.000;2023-05-10T05:28:20;95100.31;;;12.28
30001;BMP280;16845;48.670;9.000;2023-05-10T05:30:48;95107.28;;;12.22
30001;BMP280;16845;48.670;9.000;2023-05-10T05:33:14;95108.22;;;12.39
30001;BMP280;16845;48.670;9.000;2023-05-10T05:35:41;95107.00;;;12.48
30001;BMP280;16845;48.670;9.000;2023-05-10T05:38:07;95105.19;;;12.31
30001;BMP280;16845;48.670;9.000;2023-05-10T05:40:34;95108.03;;;12.44
30001;BMP280;16845;48.670;9.000;2023-05-10T05:43:00;95114.41;;;12.51
30001;BMP280;16845;48.670;9.000;2023-05-10T05:45:27;95115.75;;;12.39
30001;BMP280;16845;48.670;9.000;2023-05-10T05:47:54;95110.81;;;12.56
30001;BMP280;16845;48.670;9.000;2023-05-10T05:50:21;95119.59;;;12.66
30001;BMP280;16845;48.670;9.000;2023-05-10T05:52:47;95112.78;;;12.50
30001;BMP280;16845;48.670;9.000;2023-05-10T05:55:14;95110.72;;;12.78
30001;BMP280;16845;48.670;9.000;2023-05-10T05:57:41;95114.22;;;12.74
30001;BMP280;16845;48.670;9.000;2023-05-10T06:00:08;95119.22;;;12.75
30001;BMP280;16845;48.670;9.000;2023-05-10T06:02:34;95122.00;;;12.88
30001;BMP280;16845;48.670;9.000;2023-05-10T06:05:03;95125.66;;;13.01
30001;BMP280;16845;48.670;9.000;2023-05-10T06:07:29;95132.38;;;13.00
30001;BMP280;16845;48.670;9.000;2023-05-10T06:09:56;95128.19;;;13.01
30001;BMP280;16845;48.670;9.000;2023-05-10T06:12:22;95132.25;;;13.03
30001;BMP280;16845;48.670;9.000;2023-05-10T06:14:49;95124.91;;;13.17
30001;BMP280;16845;48.670;9.000;2023-05-10T06:17:15;95138.22;;;13.38
30001;BMP280;16845;48.670;9.000;2023-05-10T06:19:41;95138.66;;;13.29
30001;BMP280;16845;48.670;9.000;2023-05-10T06:22:09;95141.00;;;13.50
30001;BMP280;16845;48.670;9.000;2023-05-10T06:24:36;95141.09;;;13.49
30001;BMP280;16845;48.670;9.000;2023-05-10T06:27:02;95149.03;;;13.58
30001;BMP280;16845;48.670;9.000;2023-05-10T06:29:29;95147.88;;;13.65
30001;BMP280;16845;48.670;9.000;2023-05-10T06:31:55;95145.72;;;13.58
30001;BMP280;16845;48.670;9.000;2023-05-10T06:34:22;95153.75;;;13.47
30001;BMP280;16845;48.670;9.000;2023-05-10T06:36:49;95153.59;;;13.50
30001;BMP280;16845;48.670;9.000;2023-05-10T06:39:17;95151.41;;;13.61
30001;BMP280;16845;48.670;9.000;2023-05-10T06:41:43;95157.56;;;13.37
30001;BMP280;16845;48.670;9.000;2023-05-10T06:44:10;95156.25;;;13.47
30001;BMP280;16845;48.670;9.000;2023-05-10T06:46:36;95163.00;;;13.82
30001;BMP280;16845;48.670;9.000;2023-05-10T06:49:03;95160.94;;;13.55
30001;BMP280;16845;48.670;9.000;2023-05-10T06:51:29;95164.47;;;13.69
30001;BMP280;16845;48.670;9.000;2023-05-10T06:53:56;95158.06;;;13.62
30001;BMP280;16845;48.670;9.000;2023-05-10T06:56:23;95157.53;;;13.56
30001;BMP280;16845;48.670;9.000;2023-05-10T06:58:50;95152.50;;;13.74
30001;BMP280;16845;48.670;9.000;2023-05-10T07:01:16;95154.44;;;13.86
30001;BMP280;16845;48.670;9.000;2023-05-10T07:03:43;95145.50;;;13.96
30001;BMP280;16845;48.670;9.000;2023-05-10T07:06:09;95148.13;;;13.95
30001;BMP280;16845;48.670;9.000;2023-05-10T07:08:56;95143.44;;;14.04
30001;BMP280;16845;48.670;9.000;2023-05-10T07:11:23;95141.38;;;13.95
30001;BMP280;16845;48.670;9.000;2023-05-10T07:13:50;95149.19;;;14.41
30001;BMP280;16845;48.670;9.000;2023-05-10T07:16:16;95144.44;;;14.52
30001;BMP280;16845;48.670;9.000;2023-05-10T07:18:43;95158.03;;;14.33
30001;BMP280;16845;48.670;9.000;2023-05-10T07:21:09;95153.69;;;14.52
30001;BMP280;16845;48.670;9.000;2023-05-10T07:23:36;95154.31;;;14.40
30001;BMP280;16845;48.670;9.000;2023-05-10T07:26:02;95145.50;;;14.64
30001;BMP280;16845;48.670;9.000;2023-05-10T07:28:30;95156.38;;;14.49
30001;BMP280;16845;48.670;9.000;2023-05-10T07:30:57;95146.06;;;14.86
30001;BMP280;16845;48.670;9.000;2023-05-10T07:36:20;95152.69;;;14.39
30001;BMP280;16845;48.670;9.000;2023-05-10T07:38:47;95154.59;;;14.68
30001;BMP280;16845;48.670;9.000;2023-05-10T07:41:14;95144.94;;;14.59
30001;BMP280;16845;48.670;9.000;2023-05-10T07:43:41;95152.97;;;14.67
30001;BMP280;16845;48.670;9.000;2023-05-10T07:46:08;95162.84;;;14.54
30001;BMP280;16845;48.670;9.000;2023-05-10T07:48:34;95151.47;;;14.63
30001;BMP280;16845;48.670;9.000;2023-05-10T07:51:01;95159.72;;;14.99
30001;BMP280;16845;48.670;9.000;2023-05-10T07:53:27;95154.53;;;14.85
30001;BMP280;16845;48.670;9.000;2023-05-10T07:55:57;95147.75;;;14.70
30001;BMP280;16845;48.670;9.000;2023-05-10T07:58:23;95154.69;;;14.82
30001;BMP280;16845;48.670;9.000;2023-05-10T08:00:51;95160.94;;;15.07
30001;BMP280;16845;48.670;9.000;2023-05-10T08:03:18;95159.84;;;14.96
30001;BMP280;16845;48.670;9.000;2023-05-10T08:05:45;95162.97;;;15.01
30001;BMP280;16845;48.670;9.000;2023-05-10T08:08:11;95167.72;;;15.22
30001;BMP280;16845;48.670;9.000;2023-05-10T08:10:38;95162.06;;;15.50
30001;BMP280;16845;48.670;9.000;2023-05-10T08:13:04;95167.03;;;15.67
30001;BMP280;16845;48.670;9.000;2023-05-10T08:15:31;95167.06;;;15.36
30001;BMP280;16845;48.670;9.000;2023-05-10T08:17:58;95172.00;;;15.37
30001;BMP280;16845;48.670;9.000;2023-05-10T08:20:25;95168.69;;;15.37
30001;BMP280;16845;48.670;9.000;2023-05-10T08:22:51;95163.94;;;15.62
30001;BMP280;16845;48.670;9.000;2023-05-10T08:25:18;95169.06;;;15.60
30001;BMP280;16845;48.670;9.000;2023-05-10T08:27:45;95169.66;;;15.65
30001;BMP280;16845;48.670;9.000;2023-05-10T08:30:12;95166.47;;;15.46
30001;BMP280;16845;48.670;9.000;2023-05-10T08:32:38;95174.28;;;15.42
30001;BMP280;16845;48.670;9.000;2023-05-10T08:35:07;95171.28;;;15.03
30001;BMP280;16845;48.670;9.000;2023-05-10T08:37:33;95186.88;;;15.26
30001;BMP280;16845;48.670;9.000;2023-05-10T08:40:00;95176.78;;;15.11
30001;BMP280;16845;48.670;9.000;2023-05-10T08:42:28;95184.09;;;15.32
30001;BMP280;16845;48.670;9.000;2023-05-10T08:44:57;95173.75;;;15.52
30001;BMP280;16845;48.670;9.000;2023-05-10T08:47:23;95187.28;;;15.19
30001;BMP280;16845;48.670;9.000;2023-05-10T08:49:52;95180.94;;;15.12
30001;BMP280;16845;48.670;9.000;2023-05-10T08:52:21;95186.88;;;15.43
30001;BMP280;16845;48.670;9.000;2023-05-10T08:54:48;95189.63;;;15.85
30001;BMP280;16845;48.670;9.000;2023-05-10T08:57:15;95187.50;;;15.78
30001;BMP280;16845;48.670;9.000;2023-05-10T08:59:41;95184.63;;;16.15
30001;BMP280;16845;48.670;9.000;2023-05-10T09:02:09;95193.69;;;15.72
30001;BMP280;16845;48.670;9.000;2023-05-10T09:04:36;95198.78;;;15.24
30001;BMP280;16845;48.670;9.000;2023-05-10T09:07:03;95188.00;;;15.53
30001;BMP280;16845;48.670;9.000;2023-05-10T09:09:31;95182.88;;;15.39
30001;BMP280;16845;48.670;9.000;2023-05-10T09:11:57;95184.00;;;15.49
30001;BMP280;16845;48.670;9.000;2023-05-10T09:14:24;95186.75;;;15.29
30001;BMP280;16845;48.670;9.000;2023-05-10T09:16:51;95187.69;;;14.79
30001;BMP280;16845;48.670;9.000;2023-05-10T09:19:18;95202.41;;;15.03
30001;BMP280;16845;48.670;9.000;2023-05-10T09:21:44;95207.56;;;15.34
30001;BMP280;16845;48.670;9.000;2023-05-10T09:24:11;95202.34;;;15.53
30001;BMP280;16845;48.670;9.000;2023-05-10T09:26:45;95194.34;;;16.07
30001;BMP280;16845;48.670;9.000;2023-05-10T09:29:13;95193.63;;;16.50
30001;BMP280;16845;48.670;9.000;2023-05-10T09:31:44;95186.69;;;16.67
30001;BMP280;16845;48.670;9.000;2023-05-10T09:34:11;95181.91;;;16.90
30001;BMP280;16845;48.670;9.000;2023-05-10T09:36:50;95186.78;;;16.79
30001;BMP280;16845;48.670;9.000;2023-05-10T09:39:16;95192.41;;;17.12
30001;BMP280;16845;48.670;9.000;2023-05-10T09:41:44;95191.16;;;17.05
30001;BMP280;16845;48.670;9.000;2023-05-10T09:44:11;95192.72;;;17.36
30001;BMP280;16845;48.670;9.000;2023-05-10T09:46:37;95191.66;;;18.07
30001;BMP280;16845;48.670;9.000;2023-05-10T09:49:05;95186.69;;;18.32
30001;BMP280;16845;48.670;9.000;2023-05-10T09:51:31;95186.53;;;17.54
30001;BMP280;16845;48.670;9.000;2023-05-10T09:54:10;95197.16;;;17.87
30001;BMP280;16845;48.670;9.000;2023-05-10T09:56:37;95191.38;;;18.11
30001;BMP280;16845;48.670;9.000;2023-05-10T09:59:05;95179.72;;;18.21
30001;BMP280;16845;48.670;9.000;2023-05-10T10:01:32;95184.88;;;17.93
30001;BMP280;16845;48.670;9.000;2023-05-10T10:04:02;95189.72;;;18.88
30001;BMP280;16845;48.670;9.000;2023-05-10T10:06:35;95185.38;;;19.27
30001;BMP280;16845;48.670;9.000;2023-05-10T10:09:01;95182.72;;;19.16
30001;BMP280;16845;48.670;9.000;2023-05-10T10:11:28;95186.69;;;19.81
30001;BMP280;16845;48.670;9.000;2023-05-10T10:13:55;95181.38;;;20.44
30001;BMP280;16845;48.670;9.000;2023-05-10T10:16:24;95177.31;;;19.82
30001;BMP280;16845;48.670;9.000;2023-05-10T10:18:50;95177.47;;;20.04
30001;BMP280;16845;48.670;9.000;2023-05-10T10:21:17;95163.09;;;20.61
30001;BMP280;16845;48.670;9.000;2023-05-10T10:23:44;95168.31;;;21.92
30001;BMP280;16845;48.670;9.000;2023-05-10T10:26:12;95169.13;;;21.05
30001;BMP280;16845;48.670;9.000;2023-05-10T10:28:45;95169.16;;;20.71
30001;BMP280;16845;48.670;9.000;2023-05-10T10:31:20;95155.16;;;20.76
30001;BMP280;16845;48.670;9.000;2023-05-10T10:33:58;95162.75;;;21.11
30001;BMP280;16845;48.670;9.000;2023-05-10T10:36:25;95162.72;;;20.43
30001;BMP280;16845;48.670;9.000;2023-05-10T10:39:00;95173.34;;;19.17
30001;BMP280;16845;48.670;9.000;2023-05-10T10:41:29;95186.31;;;18.38
30001;BMP280;16845;48.670;9.000;2023-05-10T10:44:24;95188.06;;;17.14
30001;BMP280;16845;48.670;9.000;2023-05-10T10:47:21;95200.03;;;16.26
30001;BMP280;16845;48.670;9.000;2023-05-10T10:49:51;95208.00;;;15.42
30001;BMP280;16845;48.670;9.000;2023-05-10T10:52:22;95213.41;;;15.02
30001;BMP280;16845;48.670;9.000;2023-05-10T10:54:50;95218.63;;;14.99
30001;BMP280;16845;48.670;9.000;2023-05-10T10:57:18;95223.56;;;14.85
30001;BMP280;16845;48.670;9.000;2023-05-10T10:59:45;95228.09;;;14.79
30001;BMP280;16845;48.670;9.000;2023-05-10T11:02:32;95230.09;;;14.89
30001;BMP280;16845;48.670;9.000;2023-05-10T11:05:00;95229.56;;;14.83
30001;BMP280;16845;48.670;9.000;2023-05-10T11:07:51;95223.75;;;14.98
30001;BMP280;16845;48.670;9.000;2023-05-10T11:10:19;95230.13;;;15.05
30001;BMP280;16845;48.670;9.000;2023-05-10T11:12:51;95225.78;;;15.24
30001;BMP280;16845;48.670;9.000;2023-05-10T11:15:18;95222.75;;;15.17
30001;BMP280;16845;48.670;9.000;2023-05-10T11:17:45;95227.66;;;14.88
30001;BMP280;16845;48.670;9.000;2023-05-10T11:20:14;95218.00;;;14.79
30001;BMP280;16845;48.670;9.000;2023-05-10T11:22:51;95223.19;;;14.76
30001;BMP280;16845;48.670;9.000;2023-05-10T11:25:18;95222.88;;;14.99
30001;BMP280;16845;48.670;9.000;2023-05-10T11:27:45;95223.22;;;15.41
30001;BMP280;16845;48.670;9.000;2023-05-10T11:30:14;95220.91;;;15.84
30001;BMP280;16845;48.670;9.000;2023-05-10T11:32:41;95223.06;;;16.37
30001;BMP280;16845;48.670;9.000;2023-05-10T11:35:08;95228.56;;;16.59
30001;BMP280;16845;48.670;9.000;2023-05-10T11:37:37;95229.94;;;16.64
30001;BMP280;16845;48.670;9.000;2023-05-10T11:40:05;95232.63;;;17.32
30001;BMP280;16845;48.670;9.000;2023-05-10T11:42:32;95239.13;;;17.08
30001;BMP280;16845;48.670;9.000;2023-05-10T11:45:00;95232.47;;;17.35
30001;BMP280;16845;48.670;9.000;2023-05-10T11:47:26;95231.13;;;17.44
30001;BMP280;16845;48.670;9.000;2023-05-10T11:49:53;95223.31;;;17.47
30001;BMP280;16845;48.670;9.000;2023-05-10T11:52:19;95220.88;;;18.00
30001;BMP280;16845;48.670;9.000;2023-05-10T11:54:52;95228.25;;;18.17
30001;BMP280;16845;48.670;9.000;2023-05-10T11:57:19;95229.16;;;18.81
30001;BMP280;16845;48.670;9.000;2023-05-10T11:59:45;95222.00;;;19.37
30001;BMP280;16845;48.670;9.000;2023-05-10T12:02:13;95227.28;;;19.95
30001;BMP280;16845;48.670;9.000;2023-05-10T12:04:39;95216.47;;;19.43
30001;BMP280;16845;48.670;9.000;2023-05-10T12:07:06;95225.69;;;18.31
30001;BMP280;16845;48.670;9.000;2023-05-10T12:09:32;95225.59;;;17.92
30001;BMP280;16845;48.670;9.000;2023-05-10T12:12:15;95226.09;;;17.28
30001;BMP280;16845;48.670;9.000;2023-05-10T12:14:42;95226.47;;;17.22
30001;BMP280;16845;48.670;9.000;2023-05-10T12:17:11;95223.31;;;17.33
30001;BMP280;16845;48.670;9.000;2023-05-10T12:19:38;95228.47;;;17.73
30001;BMP280;16845;48.670;9.000;2023-05-10T12:22:05;95225.47;;;18.07
30001;BMP280;16845;48.670;9.000;2023-05-10T12:24:33;95223.50;;;17.58
30001;BMP280;16845;48.670;9.000;2023-05-10T12:27:04;95240.53;;;16.84
30001;BMP280;16845;48.670;9.000;2023-05-10T12:29:32;95241.03;;;16.62
30001;BMP280;16845;48.670;9.000;2023-05-10T12:31:59;95240.91;;;16.49
30001;BMP280;16845;48.670;9.000;2023-05-10T12:34:26;95237.66;;;16.16
30001;BMP280;16845;48.670;9.000;2023-05-10T12:36:54;95241.50;;;16.39
30001;BMP280;16845;48.670;9.000;2023-05-10T12:39:20;95240.31;;;16.60
30001;BMP280;16845;48.670;9.000;2023-05-10T12:41:47;95229.34;;;17.02
30001;BMP280;16845;48.670;9.000;2023-05-10T12:44:14;95227.94;;;17.26
30001;BMP280;16845;48.670;9.000;2023-05-10T12:46:42;95229.56;;;17.27
30001;BMP280;16845;48.670;9.000;2023-05-10T12:49:08;95226.75;;;17.60
30001;BMP280;16845;48.670;9.000;2023-05-10T12:51:35;95219.91;;;17.88
30001;BMP280;16845;48.670;9.000;2023-05-10T12:54:02;95226.25;;;17.81
30001;BMP280;16845;48.670;9.000;2023-05-10T12:56:29;95231.63;;;18.03
30001;BMP280;16845;48.670;9.000;2023-05-10T12:58:55;95229.13;;;17.89
30001;BMP280;16845;48.670;9.000;2023-05-10T13:01:22;95228.66;;;17.42
30001;BMP280;16845;48.670;9.000;2023-05-10T13:03:50;95232.88;;;17.84
30001;BMP280;16845;48.670;9.000;2023-05-10T13:06:16;95235.59;;;17.81
30001;BMP280;16845;48.670;9.000;2023-05-10T13:08:43;95229.25;;;18.14
30001;BMP280;16845;48.670;9.000;2023-05-10T13:11:09;95225.38;;;17.26
30001;BMP280;16845;48.670;9.000;2023-05-10T13:13:36;95224.88;;;17.49
30001;BMP280;16845;48.670;9.000;2023-05-10T13:16:02;95230.81;;;17.76
30001;BMP280;16845;48.670;9.000;2023-05-10T13:18:29;95232.47;;;18.04
30001;BMP280;16845;48.670;9.000;2023-05-10T13:20:57;95227.16;;;17.94
30001;BMP280;16845;48.670;9.000;2023-05-10T13:23:23;95227.41;;;18.16
30001;BMP280;16845;48.670;9.000;2023-05-10T13:25:50;95227.81;;;18.10
30001;BMP280;16845;48.670;9.000;2023-05-10T13:28:16;95227.63;;;17.73
30001;BMP280;16845;48.670;9.000;2023-05-10T13:30:43;95226.47;;;18.05
30001;BMP280;16845;48.670;9.000;2023-05-10T13:33:09;95217.59;;;17.29
30001;BMP280;16845;48.670;9.000;2023-05-10T13:35:35;95215.44;;;17.51
30001;BMP280;16845;48.670;9.000;2023-05-10T13:38:03;95213.91;;;17.49
30001;BMP280;16845;48.670;9.000;2023-05-10T13:40:30;95213.25;;;17.31
30001;BMP280;16845;48.670;9.000;2023-05-10T13:42:56;95207.19;;;17.48
30001;BMP280;16845;48.670;9.000;2023-05-10T13:45:23;95212.75;;;17.81
30001;BMP280;16845;48.670;9.000;2023-05-10T13:47:49;95209.38;;;17.94
30001;BMP280;16845;48.670;9.000;2023-05-10T13:50:18;95210.19;;;17.54
30001;BMP280;16845;48.670;9.000;2023-05-10T13:52:45;95209.50;;;17.65
30001;BMP280;16845;48.670;9.000;2023-05-10T13:55:13;95219.38;;;17.13
30001;BMP280;16845;48.670;9.000;2023-05-10T13:57:39;95215.47;;;17.37
30001;BMP280;16845;48.670;9.000;2023-05-10T14:00:07;95212.53;;;17.43
30001;BMP280;16845;48.670;9.000;2023-05-10T14:02:33;95221.38;;;16.80
30001;BMP280;16845;48.670;9.000;2023-05-10T14:05:00;95210.59;;;17.05
30001;BMP280;16845;48.670;9.000;2023-05-10T14:07:26;95211.03;;;16.69
30001;BMP280;16845;48.670;9.000;2023-05-10T14:09:53;95206.88;;;16.82
30001;BMP280;16845;48.670;9.000;2023-05-10T14:12:21;95207.09;;;16.93
30001;BMP280;16845;48.670;9.000;2023-05-10T14:14:47;95201.13;;;17.36
30001;BMP280;16845;48.670;9.000;2023-05-10T14:17:14;95200.75;;;17.28
30001;BMP280;16845;48.670;9.000;2023-05-10T14:19:40;95198.91;;;17.02